Time;durP1;ratioP1;P1;durP2;ratioP2;P2;SDS_P1;SDS_P2;PMS_P1;PMS_P2;Temp;Humidity;BMP_temperature;BMP_pressure;BME280_temperature;BME280_humidity;BME280_pressure;Samples;Min_cycle;Max_cycle;Signal;HPM_P1;HPM_P2
2022/03/21 00:02:18;;;;;;;15.07;12.10;;;;;;;7.57;36.00;96651.69;4936519;29;20024;-65
2022/03/21 00:04:44;;;;;;;14.52;11.20;;;;;;;7.50;36.46;96640.50;4936460;29;20024;-66
2022/03/21 00:07:10;;;;;;;13.90;10.98;;;;;;;7.48;36.17;96640.75;4935273;29;20118;-66
2022/03/21 00:09:35;;;;;;;13.30;10.05;;;;;;;7.51;35.94;96634.94;4936299;29;20111;-66
2022/03/21 00:12:00;;;;;;;12.57;10.40;;;;;;;7.55;35.33;96641.38;4936299;29;20122;-66
2022/03/21 00:14:26;;;;;;;14.32;10.02;;;;;;;7.56;35.56;96637.66;4936456;29;20039;-66
2022/03/21 00:16:51;;;;;;;10.70;9.10;;;;;;;7.53;35.38;96638.19;4936304;29;20038;-66
2022/03/21 00:19:17;;;;;;;12.93;10.10;;;;;;;7.44;35.24;96629.06;4936017;29;20031;-68
2022/03/21 00:21:42;;;;;;;10.63;9.18;;;;;;;7.53;35.24;96648.75;4936125;29;20452;-67
2022/03/21 00:24:08;;;;;;;12.45;9.65;;;;;;;7.58;35.30;96645.38;4934987;29;20023;-67
2022/03/21 00:26:33;;;;;;;13.95;10.90;;;;;;;7.67;35.29;96651.81;4934088;29;20051;-67
2022/03/21 00:28:58;;;;;;;14.35;10.70;;;;;;;7.59;35.71;96639.03;4935784;29;20032;-67
2022/03/21 00:31:24;;;;;;;12.55;10.35;;;;;;;7.65;35.50;96651.28;4935915;29;20469;-67
2022/03/21 00:33:49;;;;;;;13.93;9.60;;;;;;;7.66;35.70;96639.63;4936032;29;20116;-66
2022/03/21 00:36:15;;;;;;;15.75;11.20;;;;;;;7.71;35.58;96650.28;4936033;29;20426;-66
2022/03/21 00:38:43;;;;;;;16.42;11.68;;;;;;;7.66;35.77;96636.19;4950444;29;20028;-66
2022/03/21 00:41:08;;;;;;;15.18;12.40;;;;;;;7.61;36.07;96631.63;4935817;29;20031;-66
2022/03/21 00:43:34;;;;;;;14.50;12.18;;;;;;;7.63;36.91;96648.09;4935879;29;20456;-66
2022/03/21 00:46:00;;;;;;;16.63;12.85;;;;;;;7.49;37.75;96657.44;4934479;29;20086;-66
2022/03/21 00:48:28;;;;;;;15.15;12.07;;;;;;;7.45;37.04;96662.44;4950248;29;20035;-67
2022/03/21 00:50:54;;;;;;;16.25;12.13;;;;;;;7.40;37.28;96664.22;4950270;29;20469;-66
2022/03/21 00:53:20;;;;;;;18.42;12.15;;;;;;;7.29;37.77;96658.78;4935666;29;20118;-66
2022/03/21 00:55:47;;;;;;;16.77;12.18;;;;;;;7.18;37.78;96651.78;4935705;29;20426;-66
2022/03/21 00:58:13;;;;;;;18.10;12.55;;;;;;;7.13;37.84;96659.63;4935463;29;20082;-66
2022/03/21 01:00:38;;;;;;;16.17;12.88;;;;;;;7.06;38.65;96659.00;4952874;29;20104;-66
2022/03/21 01:03:04;;;;;;;19.15;12.15;;;;;;;6.88;38.59;96652.16;4954663;29;20486;-66
2022/03/21 01:05:30;;;;;;;15.80;12.25;;;;;;;6.67;39.26;96635.19;4953182;29;20505;-66
2022/03/21 01:07:57;;;;;;;20.05;12.23;;;;;;;6.71;38.50;96661.97;4954526;29;20035;-66
2022/03/21 01:10:23;;;;;;;14.13;11.73;;;;;;;6.66;39.08;96656.59;4953970;29;20106;-66
2022/03/21 01:12:50;;;;;;;16.98;12.57;;;;;;;6.60;39.71;96650.41;4954311;29;20075;-66
2022/03/21 01:15:17;;;;;;;19.77;12.05;;;;;;;6.62;39.83;96663.41;4952628;29;20564;-66
2022/03/21 01:17:44;;;;;;;17.23;11.75;;;;;;;6.56;39.25;96651.94;4954220;29;20024;-67
2022/03/21 01:20:10;;;;;;;13.48;11.77;;;;;;;6.44;40.12;96651.22;4954056;29;20106;-66
2022/03/21 01:22:36;;;;;;;15.55;11.52;;;;;;;6.46;40.11;96642.00;4954223;29;20106;-67
2022/03/21 01:25:01;;;;;;;16.70;11.85;;;;;;;6.48;39.78;96658.41;4954281;29;20055;-66
2022/03/21 01:27:27;;;;;;;17.05;11.52;;;;;;;6.45;39.91;96650.19;4954030;29;20031;-66
2022/03/21 01:29:52;;;;;;;15.48;11.15;;;;;;;6.37;40.48;96658.50;4953921;29;20019;-66
2022/03/21 01:32:18;;;;;;;15.55;11.80;;;;;;;6.19;40.77;96656.88;4954043;29;20027;-66
2022/03/21 01:34:44;;;;;;;15.60;12.15;;;;;;;6.01;41.37;96657.09;4953975;29;20027;-67
2022/03/21 01:37:09;;;;;;;16.17;10.88;;;;;;;5.96;41.03;96641.97;4952770;28;20062;-67
2022/03/21 01:39:35;;;;;;;19.75;12.27;;;;;;;6.09;41.19;96657.53;4953819;29;20483;-67
2022/03/21 01:42:00;;;;;;;16.75;12.13;;;;;;;6.08;40.84;96640.06;4952558;29;20031;-67
2022/03/21 01:44:26;;;;;;;15.73;11.93;;;;;;;6.02;41.04;96641.00;4953945;29;20416;-68
2022/03/21 01:46:51;;;;;;;16.15;12.05;;;;;;;6.01;41.12;96649.97;4953857;29;20031;-65
2022/03/21 01:49:17;;;;;;;14.70;12.02;;;;;;;5.77;41.95;96643.97;4953557;29;20035;-66
2022/03/21 01:51:43;;;;;;;19.30;13.68;;;;;;;5.88;41.23;96651.03;4953679;29;20027;-66
2022/03/21 01:56:54;;;;;;;18.70;12.75;;;;;;;5.45;41.45;96606.69;4954041;29;20038;-66
2022/03/21 01:59:21;;;;;;;18.95;13.02;;;;;;;5.74;41.47;96647.88;4953543;29;20059;-66
2022/03/21 02:01:47;;;;;;;16.10;12.48;;;;;;;5.58;41.86;96638.09;4953536;29;20031;-65
2022/03/21 02:04:13;;;;;;;18.50;13.35;;;;;;;5.66;42.16;96665.94;4953757;29;20031;-67
2022/03/21 02:06:38;;;;;;;15.38;12.50;;;;;;;5.54;42.40;96649.34;4953377;29;20031;-67
2022/03/21 02:09:09;;;;;;;18.92;13.52;;;;;;;5.34;43.35;96657.66;4953450;29;20062;-65
2022/03/21 02:11:36;;;;;;;20.33;12.90;;;;;;;4.84;44.65;96658.97;4953508;29;20055;-66
2022/03/21 02:14:04;;;;;;;20.45;13.63;;;;;;;5.12;44.37;96674.09;4953533;29;20114;-65
2022/03/21 02:16:31;;;;;;;16.58;12.40;;;;;;;4.93;45.09;96675.25;4953540;29;20085;-67
2022/03/21 02:19:04;;;;;;;19.27;12.75;;;;;;;5.19;44.46;96677.41;4951904;29;20476;-67
2022/03/21 02:21:48;;;;;;;19.58;12.85;;;;;;;5.28;43.76;96663.88;4953397;29;20473;-67
2022/03/21 02:24:49;;;;;;;22.67;13.55;;;;;;;5.29;43.61;96671.53;4953545;29;20106;-67
2022/03/21 02:27:16;;;;;;;18.05;13.07;;;;;;;5.35;43.46;96667.97;4953469;29;20030;-65
2022/03/21 02:29:44;;;;;;;17.27;12.93;;;;;;;5.26;43.20;96656.16;4952075;29;20154;-67
2022/03/21 02:32:10;;;;;;;18.58;13.07;;;;;;;5.34;43.10;96676.13;4951903;29;20027;-65
2022/03/21 02:34:37;;;;;;;23.17;14.20;;;;;;;5.34;43.57;96682.22;4952019;29;20030;-66
2022/03/21 02:37:04;;;;;;;19.45;12.52;;;;;;;5.34;43.43;96674.28;4953531;29;20023;-66
2022/03/21 02:39:30;;;;;;;20.25;14.05;;;;;;;5.17;44.08;96668.94;4951908;29;20027;-66
2022/03/21 02:41:56;;;;;;;21.75;13.27;;;;;;;5.24;43.88;96674.06;4953164;29;20038;-65
2022/03/21 02:44:22;;;;;;;25.15;14.05;;;;;;;5.21;44.33;96683.25;4953213;29;20461;-66
2022/03/21 02:46:47;;;;;;;22.33;12.85;;;;;;;5.24;44.07;96674.06;4953471;29;20043;-66
2022/03/21 02:49:14;;;;;;;22.27;13.60;;;;;;;5.29;43.96;96671.53;4953361;28;20031;-66
2022/03/21 02:51:41;;;;;;;23.67;13.52;;;;;;;5.20;43.92;96657.91;4956993;29;20039;-66
2022/03/21 02:54:07;;;;;;;17.13;12.70;;;;;;;5.05;44.15;96648.88;4955815;29;20035;-66
2022/03/21 02:56:33;;;;;;;16.52;12.30;;;;;;;5.10;44.17;96659.53;4955674;29;20035;-66
2022/03/21 02:58:58;;;;;;;17.80;12.82;;;;;;;5.16;44.29;96666.50;4956665;29;20106;-66
2022/03/21 03:01:24;;;;;;;20.90;12.55;;;;;;;5.18;44.08;96665.25;4955521;29;20476;-67
2022/03/21 03:03:49;;;;;;;17.38;12.90;;;;;;;5.11;44.29;96674.31;4954841;29;20027;-67
2022/03/21 03:06:14;;;;;;;18.77;13.15;;;;;;;5.04;44.34;96660.47;4955583;29;20031;-67
2022/03/21 03:08:41;;;;;;;18.55;13.02;;;;;;;5.12;44.39;96681.22;4955309;29;20031;-67
2022/03/21 03:11:07;;;;;;;19.17;12.27;;;;;;;4.96;44.87;96666.88;4956733;29;20023;-67
2022/03/21 03:13:33;;;;;;;16.77;12.02;;;;;;;5.03;44.62;96670.22;4956624;29;20106;-67
2022/03/21 03:15:59;;;;;;;17.02;13.18;;;;;;;5.18;44.49;96686.38;4956620;29;20031;-67
2022/03/21 03:18:24;;;;;;;24.38;13.82;;;;;;;5.08;43.91;96680.06;4956414;29;20031;-67
2022/03/21 03:20:54;;;;;;;17.10;12.80;;;;;;;4.94;44.15;96677.66;4956470;29;20055;-67
2022/03/21 03:23:25;;;;;;;17.83;11.82;;;;;;;4.99;44.52;96692.78;4956460;29;20042;-66
2022/03/21 03:26:00;;;;;;;17.88;12.75;;;;;;;5.04;44.60;96687.63;4955202;29;20027;-67
2022/03/21 03:28:26;;;;;;;16.58;11.52;;;;;;;4.94;44.66;96679.50;4954765;29;20027;-66
2022/03/21 03:30:51;;;;;;;19.92;12.18;;;;;;;4.91;44.47;96670.22;4954709;29;20031;-66
2022/03/21 03:33:17;;;;;;;24.83;13.32;;;;;;;5.00;44.75;96690.94;4955026;29;20062;-66
2022/03/21 03:35:42;;;;;;;17.02;12.85;;;;;;;4.95;44.76;96692.44;4956263;29;20155;-66
2022/03/21 03:38:08;;;;;;;17.80;12.70;;;;;;;4.89;44.82;96680.19;4956343;29;20178;-66
2022/03/21 03:40:33;;;;;;;15.45;12.13;;;;;;;4.94;44.96;96685.56;4955799;29;20028;-66
2022/03/21 03:42:59;;;;;;;21.38;13.07;;;;;;;4.84;44.87;96666.09;4956137;29;20165;-66
2022/03/21 03:45:25;;;;;;;17.27;12.63;;;;;;;4.94;45.25;96700.59;4954823;29;20031;-66
2022/03/21 03:47:52;;;;;;;15.48;11.73;;;;;;;4.84;45.09;96681.91;4956060;29;20147;-66
2022/03/21 03:50:17;;;;;;;13.93;11.48;;;;;;;4.62;45.11;96647.41;4961210;23;20083;-72
2022/03/21 03:52:45;;;;;;;17.48;12.35;;;;;;;4.69;45.23;96666.53;4936650;29;20118;-71
2022/03/21 03:55:14;;;;;;;14.20;11.98;;;;;;;4.63;44.83;96651.66;4951411;29;20028;-70
2022/03/21 03:57:40;;;;;;;14.02;11.98;;;;;;;4.43;45.22;96626.44;4935383;29;20031;-70
2022/03/21 04:00:07;;;;;;;17.88;12.32;;;;;;;4.57;45.05;96649.94;4935256;29;20086;-69
2022/03/21 04:03:44;;;;;;;17.85;13.13;;;;;;;4.85;44.80;96697.47;4949787;29;20031;-70
2022/03/21 04:05:19;;;;;;;14.73;11.88;;;;;;;4.61;45.24;96653.72;4936520;29;20031;-70
2022/03/21 04:07:45;;;;;;;15.65;11.90;;;;;;;4.47;45.07;96663.66;4935252;29;20035;-71
2022/03/21 04:10:10;;;;;;;14.30;11.77;;;;;;;4.70;45.05;96689.22;4934790;29;20035;-70
2022/03/21 04:12:36;;;;;;;14.00;11.75;;;;;;;4.33;46.02;96672.81;4935092;29;20496;-70
2022/03/21 04:15:01;;;;;;;21.00;12.57;;;;;;;3.91;46.09;96609.63;4936306;29;20078;-70
2022/03/21 04:17:27;;;;;;;24.88;13.07;;;;;;;4.30;46.01;96681.16;4936397;29;20072;-70
2022/03/21 04:19:52;;;;;;;18.73;12.48;;;;;;;4.24;45.74;96658.34;4936245;29;20023;-70
2022/03/21 04:22:18;;;;;;;14.48;11.40;;;;;;;3.99;46.62;96650.63;4934637;29;20024;-71
2022/03/21 04:24:43;;;;;;;21.08;12.43;;;;;;;4.20;46.65;96683.53;4935005;29;20047;-70
2022/03/21 04:27:08;;;;;;;21.83;12.18;;;;;;;4.12;46.37;96676.75;4936203;29;20024;-70
2022/03/21 04:29:34;;;;;;;17.92;12.23;;;;;;;3.79;46.60;96638.56;4935850;29;20027;-70
2022/03/21 04:32:01;;;;;;;21.63;12.77;;;;;;;3.93;47.14;96678.66;4934800;29;20425;-70
2022/03/21 04:34:26;;;;;;;14.63;11.95;;;;;;;3.75;46.35;96623.44;4936072;29;20030;-70
2022/03/21 04:36:52;;;;;;;17.75;11.93;;;;;;;4.01;47.06;96707.31;4934692;29;20395;-70
2022/03/21 04:39:17;;;;;;;18.88;12.68;;;;;;;3.71;48.09;96722.28;4935680;29;20106;-71
2022/03/21 04:41:42;;;;;;;15.02;11.95;;;;;;;3.85;46.84;96682.41;4950405;28;20030;-70
2022/03/21 04:44:08;;;;;;;17.25;12.82;;;;;;;3.88;46.80;96671.41;4934690;29;20106;-71
2022/03/21 04:46:33;;;;;;;14.82;11.88;;;;;;;2.70;48.13;96589.50;4935757;29;20058;-70
2022/03/21 04:48:59;;;;;;;17.48;11.48;;;;;;;2.81;49.73;96678.13;4935490;29;20098;-70
2022/03/21 04:51:24;;;;;;;17.00;12.77;;;;;;;3.47;48.72;96705.56;4935564;29;20032;-70
2022/03/21 04:53:49;;;;;;;20.00;12.30;;;;;;;3.60;48.43;96695.69;4950509;29;20051;-71
2022/03/21 04:56:15;;;;;;;17.35;13.07;;;;;;;3.78;47.46;96699.31;4934522;29;20020;-71
2022/03/21 04:58:40;;;;;;;18.13;13.02;;;;;;;3.61;46.82;96646.50;4935614;29;20433;-71
2022/03/21 05:01:06;;;;;;;17.83;12.50;;;;;;;3.61;47.07;96689.38;4934102;29;20473;-70
2022/03/21 05:03:32;;;;;;;15.52;12.93;;;;;;;3.95;47.10;96731.91;4935478;29;20056;-70
2022/03/21 05:05:58;;;;;;;16.25;12.98;;;;;;;2.93;47.81;96594.94;4935532;29;20043;-70
2022/03/21 05:08:24;;;;;;;22.17;13.40;;;;;;;3.65;47.58;96721.34;4933956;29;20473;-70
2022/03/21 05:10:49;;;;;;;20.35;13.35;;;;;;;3.88;47.01;96720.63;4935463;29;20031;-70
2022/03/21 05:13:15;;;;;;;17.77;12.70;;;;;;;3.70;47.54;96726.75;4934959;29;20083;-70
2022/03/21 05:15:41;;;;;;;18.00;12.38;;;;;;;3.30;47.56;96644.84;4935119;29;20074;-70
2022/03/21 05:18:06;;;;;;;17.88;12.95;;;;;;;3.75;47.14;96686.59;4949824;29;20075;-71
2022/03/21 05:20:32;;;;;;;21.30;13.18;;;;;;;4.15;47.02;96747.44;4949431;28;20036;-70
2022/03/21 05:31:10;;;;;;;18.73;12.98;;;;;;;4.20;46.72;96741.47;4935139;29;20099;-70
2022/03/21 05:36:29;;;;;;;18.67;12.90;;;;;;;4.46;46.00;96741.13;4935329;29;20480;-70
2022/03/21 05:38:55;;;;;;;24.35;12.80;;;;;;;4.68;46.04;96760.63;4933544;29;20433;-70
2022/03/21 05:41:21;;;;;;;17.95;13.23;;;;;;;4.82;45.67;96752.53;4934676;29;20428;-71
2022/03/21 05:43:46;;;;;;;19.33;12.95;;;;;;;4.86;45.74;96749.22;4933625;29;20033;-70
2022/03/21 05:46:12;;;;;;;20.45;13.07;;;;;;;4.90;45.56;96742.44;4934895;29;20397;-70
2022/03/21 05:48:59;;;;;;;17.05;12.52;;;;;;;4.84;45.36;96708.28;4934557;29;20038;-71
2022/03/21 05:51:30;;;;;;;17.60;13.35;;;;;;;5.30;45.07;96762.03;4934413;29;20110;-72
2022/03/21 05:54:00;;;;;;;23.10;13.52;;;;;;;5.47;44.73;96769.03;4933617;29;20030;-70
2022/03/21 05:56:27;;;;;;;17.85;12.20;;;;;;;5.05;44.85;96683.97;4934684;29;20153;-71
2022/03/21 05:58:53;;;;;;;19.17;12.25;;;;;;;5.82;44.51;96765.53;4933125;29;20035;-70
2022/03/21 06:01:21;;;;;;;21.92;13.10;;;;;;;5.99;44.14;96757.72;4934174;29;20408;-70
2022/03/21 06:03:48;;;;;;;15.38;11.25;;;;;;;5.64;43.87;96682.03;4934343;29;20028;-70
2022/03/21 06:06:13;;;;;;;19.88;13.48;;;;;;;5.72;43.48;96665.00;4934589;29;20024;-71
2022/03/21 06:08:39;;;;;;;15.50;12.88;;;;;;;6.29;43.26;96727.59;4933906;29;20086;-71
2022/03/21 06:11:04;;;;;;;17.00;12.45;;;;;;;6.28;42.27;96697.72;4933169;29;20366;-70
2022/03/21 06:13:34;;;;;;;22.60;13.10;;;;;;;6.77;42.49;96764.13;4934309;29;20392;-67
2022/03/21 06:16:03;;;;;;;16.27;12.50;;;;;;;6.80;42.09;96771.56;4934176;29;20106;-66
2022/03/21 06:18:36;;;;;;;19.70;12.88;;;;;;;6.80;41.52;96763.63;4932877;29;20051;-69
2022/03/21 06:21:04;;;;;;;13.57;11.20;;;;;;;6.84;40.50;96787.75;4932773;29;20477;-69
2022/03/21 06:23:29;;;;;;;19.13;12.15;;;;;;;6.71;40.59;96704.28;4948896;28;20034;-71
2022/03/21 06:25:56;;;;;;;17.08;11.90;;;;;;;6.77;40.57;96705.94;4932306;29;20027;-71
2022/03/21 06:28:23;;;;;;;15.00;10.98;;;;;;;7.15;39.89;96741.41;4934063;29;20099;-71
2022/03/21 06:30:53;;;;;;;14.02;11.15;;;;;;;7.65;40.19;96781.03;4948931;29;20027;-70
2022/03/21 06:33:21;;;;;;;20.58;12.50;;;;;;;7.60;39.73;96804.81;4934310;29;20024;-70
2022/03/21 06:35:46;;;;;;;14.68;11.02;;;;;;;7.30;38.43;96766.25;4949000;29;20036;-72
2022/03/21 06:38:12;;;;;;;17.08;11.60;;;;;;;7.34;39.12;96753.34;4934304;29;20059;-71
2022/03/21 06:40:39;;;;;;;17.33;11.70;;;;;;;6.73;39.29;96734.72;4933954;29;20107;-69
2022/03/21 06:43:04;;;;;;;15.93;11.52;;;;;;;7.68;39.00;96790.38;4948569;29;20449;-71
2022/03/21 06:45:30;;;;;;;16.80;11.27;;;;;;;5.34;42.27;96773.75;4948647;29;20111;-69
2022/03/21 06:47:57;;;;;;;17.98;12.70;;;;;;;6.46;40.33;96773.38;4933997;29;20501;-70
2022/03/21 06:50:22;;;;;;;14.80;12.30;;;;;;;6.45;40.66;96785.81;4933805;29;20042;-71
2022/03/21 06:52:47;;;;;;;18.60;12.35;;;;;;;5.71;42.28;96766.34;4934000;29;20024;-72
2022/03/21 06:55:13;;;;;;;21.50;11.95;;;;;;;5.06;43.81;96777.84;4933939;29;20067;-69
2022/03/21 06:57:39;;;;;;;21.67;12.98;;;;;;;6.41;41.99;96783.88;4933918;29;20043;-71
2022/03/21 07:00:06;;;;;;;22.55;12.23;;;;;;;7.16;40.16;96798.59;4933696;29;20110;-73
2022/03/21 07:02:32;;;;;;;15.65;11.98;;;;;;;7.86;39.52;96789.25;4933670;29;20107;-70
2022/03/21 07:04:58;;;;;;;23.05;12.90;;;;;;;8.24;38.58;96769.81;4914585;29;20123;-71
2022/03/21 07:07:27;;;;;;;21.27;13.00;;;;;;;8.27;37.46;96751.56;4913375;29;20445;-73
2022/03/21 07:09:53;;;;;;;16.30;11.75;;;;;;;8.77;37.50;96800.91;4914832;29;20115;-68
2022/03/21 07:12:23;;;;;;;15.88;12.20;;;;;;;9.02;37.09;96788.91;4914854;29;20475;-69
2022/03/21 07:14:49;;;;;;;16.30;12.48;;;;;;;9.25;36.47;96799.16;4913803;29;20020;-71
2022/03/21 07:17:18;;;;;;;17.90;12.63;;;;;;;9.27;35.83;96810.34;4915005;29;20042;-71
2022/03/21 07:19:43;;;;;;;19.42;13.30;;;;;;;9.12;36.15;96743.88;4914324;29;20039;-74
2022/03/21 07:22:09;;;;;;;19.60;12.80;;;;;;;9.61;35.55;96786.13;4914594;29;20024;-70
2022/03/21 07:24:34;;;;;;;18.02;12.82;;;;;;;9.57;35.63;96782.38;4914850;29;20028;-70
2022/03/21 07:26:59;;;;;;;15.95;13.85;;;;;;;9.69;35.15;96790.16;4914805;29;20466;-71
2022/03/21 07:29:25;;;;;;;19.05;13.80;;;;;;;9.82;34.73;96784.38;4914707;29;20061;-70
2022/03/21 07:31:50;;;;;;;17.05;13.10;;;;;;;9.97;34.95;96799.59;4913425;29;20032;-71
2022/03/21 07:34:15;;;;;;;17.50;12.50;;;;;;;8.88;35.13;96761.19;4912330;29;20036;-70
2022/03/21 07:36:41;;;;;;;19.45;12.85;;;;;;;6.93;39.85;96812.78;4915902;29;20375;-74
2022/03/21 07:39:06;;;;;;;19.75;12.25;;;;;;;7.36;39.09;96795.44;4917685;29;20397;-70
2022/03/21 07:41:32;;;;;;;19.20;12.60;;;;;;;7.28;39.78;96796.69;4917674;29;20129;-70
2022/03/21 07:43:58;;;;;;;15.50;12.90;;;;;;;8.19;38.50;96842.16;4916767;29;20524;-70
2022/03/21 07:49:10;;;;;;;19.02;12.20;;;;;;;8.12;37.36;96835.41;4917112;29;20102;-70
2022/03/21 07:51:35;;;;;;;18.55;12.35;;;;;;;7.11;38.96;96817.84;4917560;29;20382;-69
2022/03/21 07:54:02;;;;;;;18.63;12.32;;;;;;;7.68;37.91;96822.16;4917920;29;20028;-69
2022/03/21 07:56:27;;;;;;;17.25;12.13;;;;;;;7.53;38.36;96798.91;4932738;29;20028;-70
2022/03/21 07:58:53;;;;;;;18.05;13.32;;;;;;;8.88;36.75;96822.22;4932349;29;20039;-70
2022/03/21 08:01:19;;;;;;;22.77;12.25;;;;;;;9.19;35.81;96824.06;4917655;29;20043;-70
2022/03/21 08:03:46;;;;;;;18.38;12.02;;;;;;;8.92;36.37;96807.41;4915650;29;20246;-69
2022/03/21 08:06:11;;;;;;;15.93;12.00;;;;;;;8.41;37.02;96847.47;4917763;29;20111;-70
2022/03/21 08:08:37;;;;;;;16.30;12.38;;;;;;;9.06;36.33;96846.56;4916607;29;20115;-70
2022/03/21 08:11:04;;;;;;;21.70;11.88;;;;;;;8.77;36.43;96853.16;4917486;29;20088;-70
2022/03/21 08:13:30;;;;;;;18.85;12.68;;;;;;;8.96;36.10;96758.09;4917487;29;20032;-70
2022/03/21 08:15:56;;;;;;;17.20;11.95;;;;;;;8.80;36.49;96844.69;4932149;29;20031;-70
2022/03/21 08:18:21;;;;;;;14.23;12.38;;;;;;;9.31;35.69;96816.72;4917297;29;20381;-69
2022/03/21 08:20:46;;;;;;;15.85;11.85;;;;;;;9.87;34.37;96806.44;4931180;29;20091;-70
2022/03/21 08:23:14;;;;;;;17.67;11.80;;;;;;;9.26;34.25;96834.47;4917379;29;20036;-71
2022/03/21 08:25:42;;;;;;;19.67;12.93;;;;;;;10.36;33.91;96848.72;4915951;29;20047;-69
2022/03/21 08:28:08;;;;;;;20.10;13.93;;;;;;;10.62;33.55;96809.69;4931647;29;20032;-70
2022/03/21 08:30:35;;;;;;;14.88;12.23;;;;;;;11.17;32.99;96842.78;4916458;29;20032;-70
2022/03/21 08:33:02;;;;;;;15.10;11.85;;;;;;;9.59;34.04;96796.22;4915755;29;20039;-70
2022/03/21 08:35:28;;;;;;;22.45;11.93;;;;;;;8.77;35.69;96777.03;4916450;29;20032;-70
2022/03/21 08:37:54;;;;;;;18.35;12.80;;;;;;;10.00;33.56;96821.16;4917193;29;20380;-70
2022/03/21 08:40:19;;;;;;;18.25;12.65;;;;;;;9.06;35.54;96840.44;4915674;29;20028;-70
2022/03/21 08:42:46;;;;;;;19.25;12.70;;;;;;;10.09;34.56;96859.47;4916961;29;20058;-70
2022/03/21 08:45:13;;;;;;;17.27;12.65;;;;;;;9.55;34.64;96798.56;4915760;29;20423;-70
2022/03/21 08:47:38;;;;;;;19.90;12.43;;;;;;;11.01;33.00;96829.72;4915281;29;20028;-70
2022/03/21 08:50:05;;;;;;;21.77;12.63;;;;;;;11.25;33.22;96843.31;4914478;29;20093;-70
2022/03/21 08:52:31;;;;;;;18.27;12.85;;;;;;;11.06;32.48;96849.19;4915370;29;20071;-69
2022/03/21 08:54:56;;;;;;;19.02;13.05;;;;;;;10.88;32.94;96833.69;4915360;29;20047;-71
2022/03/21 08:57:22;;;;;;;21.98;13.60;;;;;;;11.51;32.37;96847.56;4916594;29;20040;-71
2022/03/21 08:59:47;;;;;;;16.95;13.32;;;;;;;10.85;32.49;96821.72;4915062;29;20024;-69
2022/03/21 09:02:13;;;;;;;17.95;13.20;;;;;;;10.35;32.36;96863.09;4916576;29;20028;-70
2022/03/21 09:04:40;;;;;;;15.23;11.95;;;;;;;9.95;32.91;96783.91;4914241;29;20371;-70
2022/03/21 09:07:08;;;;;;;18.60;12.68;;;;;;;10.91;31.98;96827.84;4916423;29;20072;-70
2022/03/21 09:09:34;;;;;;;16.65;12.50;;;;;;;10.86;31.34;96722.16;4916352;29;20055;-70
2022/03/21 09:11:59;;;;;;;14.93;13.25;;;;;;;11.89;30.15;96798.22;4916234;29;20079;-69
2022/03/21 09:14:25;;;;;;;14.85;12.63;;;;;;;12.03;28.54;96800.31;4915000;29;20492;-70
2022/03/21 09:16:52;;;;;;;15.77;13.40;;;;;;;12.36;28.54;96806.84;4916472;29;20032;-70
2022/03/21 09:19:19;;;;;;;14.18;12.73;;;;;;;12.22;28.64;96777.28;4914070;29;20040;-70
2022/03/21 09:21:45;;;;;;;16.30;13.60;;;;;;;11.34;30.39;96815.88;4916211;29;20028;-70
2022/03/21 09:24:11;;;;;;;15.85;12.75;;;;;;;12.04;29.45;96805.38;4916291;29;20063;-70
2022/03/21 09:26:37;;;;;;;23.63;12.73;;;;;;;11.90;29.06;96831.81;4914708;29;20115;-70
2022/03/21 09:29:03;;;;;;;19.45;14.35;;;;;;;12.07;28.67;96812.81;4915920;29;20121;-70
2022/03/21 09:31:32;;;;;;;19.52;13.55;;;;;;;12.45;28.86;96782.00;4916004;29;20024;-71
2022/03/21 09:33:59;;;;;;;16.38;12.40;;;;;;;12.83;28.20;96795.63;4915916;29;20661;-70
2022/03/21 09:36:25;;;;;;;21.60;13.52;;;;;;;12.84;28.02;96841.81;4914022;29;20040;-70
2022/03/21 09:38:50;;;;;;;18.30;13.27;;;;;;;11.41;29.87;96851.06;4915944;29;20060;-70
2022/03/21 09:41:22;;;;;;;17.73;13.05;;;;;;;11.87;28.99;96813.69;4915762;29;20038;-70
2022/03/21 09:43:51;;;;;;;16.73;13.00;;;;;;;12.00;29.36;96817.66;4914661;29;20047;-70
2022/03/21 09:46:17;;;;;;;24.08;13.05;;;;;;;12.36;28.97;96842.34;4915993;29;20038;-70
2022/03/21 09:48:49;;;;;;;16.33;13.13;;;;;;;12.75;28.15;96793.56;4914231;29;20032;-70
2022/03/21 09:51:24;;;;;;;17.08;12.82;;;;;;;11.57;28.47;96811.06;4914914;29;20051;-71
2022/03/21 09:53:50;;;;;;;18.23;13.68;;;;;;;12.24;28.99;96833.84;4914633;29;20032;-71
2022/03/21 09:56:18;;;;;;;15.73;12.65;;;;;;;13.13;28.10;96824.00;4929171;23;20060;-69
2022/03/21 09:58:44;;;;;;;13.77;12.38;;;;;;;12.66;28.07;96835.25;4948649;28;20035;-69
2022/03/21 10:01:13;;;;;;;15.52;11.73;;;;;;;13.17;27.44;96822.38;4934124;29;20392;-69
2022/03/21 10:03:39;;;;;;;20.73;12.68;;;;;;;13.61;26.95;96826.03;4934601;29;20036;-67
2022/03/21 10:06:32;;;;;;;16.42;13.15;;;;;;;13.99;26.79;96830.47;4933760;29;20103;-67
2022/03/21 10:09:09;;;;;;;14.38;12.88;;;;;;;14.03;26.64;96826.16;4934520;29;20028;-67
2022/03/21 10:11:35;;;;;;;18.90;13.18;;;;;;;14.14;26.43;96818.81;4934507;29;20030;-68
2022/03/21 10:14:24;;;;;;;14.30;12.15;;;;;;;13.91;26.63;96820.38;4934427;29;20032;-69
2022/03/21 10:16:58;;;;;;;14.32;12.82;;;;;;;13.84;26.29;96827.16;4934562;29;20504;-67
2022/03/21 10:19:24;;;;;;;15.75;13.32;;;;;;;13.97;26.24;96829.97;4934300;29;20034;-68
2022/03/21 10:22:06;;;;;;;21.38;14.65;;;;;;;14.01;26.44;96822.16;4934282;29;20035;-66
2022/03/21 10:24:40;;;;;;;19.25;13.27;;;;;;;13.89;25.87;96817.22;4949086;29;20034;-68
2022/03/21 10:27:06;;;;;;;15.15;12.50;;;;;;;14.15;25.30;96812.38;4934444;29;20101;-69
2022/03/21 10:29:32;;;;;;;15.52;12.70;;;;;;;14.27;25.23;96820.78;4934166;29;20115;-69
2022/03/21 10:31:58;;;;;;;14.85;12.65;;;;;;;14.53;25.41;96817.81;4948797;28;20070;-67
2022/03/21 10:34:30;;;;;;;16.80;12.70;;;;;;;14.77;25.33;96809.75;4948718;28;20035;-68
2022/03/21 10:36:58;;;;;;;;;;;;;;;14.96;24.55;96807.84;4934760;29;20056;-68
2022/03/21 10:39:24;;;;;;;16.40;11.85;;;;;;;14.99;24.47;96793.06;4948657;28;19915;-75
2022/03/21 10:41:55;;;;;;;20.08;12.70;;;;;;;15.08;24.58;96799.38;4948596;28;20131;-71
2022/03/21 10:44:21;;;;;;;20.40;13.30;;;;;;;14.77;24.46;96815.09;4934076;29;20035;-70
2022/03/21 10:46:51;;;;;;;16.80;13.23;;;;;;;15.01;24.31;96804.31;4932881;29;20040;-71
2022/03/21 10:49:29;;;;;;;14.05;12.18;;;;;;;14.85;24.79;96813.66;4933956;29;20489;-70
2022/03/21 10:51:55;;;;;;;19.67;13.75;;;;;;;14.69;24.78;96791.63;4933821;29;20066;-69
2022/03/21 10:54:50;;;;;;;20.15;12.20;;;;;;;15.15;23.91;96809.72;4933832;29;20063;-69
2022/03/21 10:57:36;;;;;;;21.17;12.43;;;;;;;15.28;23.61;96800.94;4931822;29;20050;-68
2022/03/21 11:00:14;;;;;;;17.50;12.82;;;;;;;13.72;24.92;96804.28;4933755;29;20024;-68
2022/03/21 11:02:51;;;;;;;15.18;13.27;;;;;;;14.52;24.37;96806.31;4932939;29;20036;-69
2022/03/21 11:05:17;;;;;;;15.90;12.68;;;;;;;14.83;23.71;96803.22;4934202;29;20030;-67
2022/03/21 11:07:47;;;;;;;21.17;12.90;;;;;;;15.14;23.83;96800.88;4934229;29;20078;-68
2022/03/21 11:10:12;;;;;;;16.27;12.50;;;;;;;15.22;23.61;96792.19;4934092;29;20047;-68
2022/03/21 11:12:41;;;;;;;20.20;12.63;;;;;;;13.23;25.57;96770.50;4937787;29;20051;-68
2022/03/21 11:15:08;;;;;;;16.33;12.75;;;;;;;13.41;25.77;96794.94;4937629;29;20039;-67
2022/03/21 11:17:34;;;;;;;17.17;12.52;;;;;;;14.29;25.15;96772.34;4936544;29;20024;-67
2022/03/21 11:20:02;;;;;;;14.93;11.85;;;;;;;14.90;24.48;96765.38;4937340;29;20031;-67
2022/03/21 11:22:29;;;;;;;15.98;13.10;;;;;;;15.38;23.66;96790.03;4937191;29;20023;-67
2022/03/21 11:24:59;;;;;;;14.07;12.57;;;;;;;15.46;23.43;96772.50;4937303;29;20026;-67
2022/03/21 11:27:56;;;;;;;15.32;12.68;;;;;;;15.74;23.50;96782.19;4952202;29;20220;-67
2022/03/21 11:30:33;;;;;;;13.85;12.32;;;;;;;15.39;23.46;96764.81;4929354;29;20464;-68
2022/03/21 11:33:10;;;;;;;18.67;12.75;;;;;;;13.76;24.80;96788.44;4936229;29;20394;-68
2022/03/21 11:35:41;;;;;;;13.23;11.95;;;;;;;14.41;24.14;96775.38;4937268;29;20024;-68
2022/03/21 11:38:29;;;;;;;17.60;12.65;;;;;;;15.16;23.75;96771.91;4937281;29;20028;-68
2022/03/21 11:41:23;;;;;;;17.38;12.52;;;;;;;15.72;22.99;96762.91;4951958;29;20091;-67
2022/03/21 11:44:15;;;;;;;15.95;12.77;;;;;;;14.94;23.09;96759.09;4952005;29;20028;-68